sensor_id;sensor_type;location;lat;lon;timestamp;P1;durP1;ratioP1;P2;durP2;ratioP2
24383;SDS011;12504;52.870;8.798;2023-02-07T00:00:47;29.27;;;14.90;;
24383;SDS011;12504;52.870;8.798;2023-02-07T00:03:13;28.15;;;12.90;;
24383;SDS011;12504;52.870;8.798;2023-02-07T00:05:39;29.77;;;14.18;;
24383;SDS011;12504;52.870;8.798;2023-02-07T00:08:05;37.65;;;15.55;;
24383;SDS011;12504;52.870;8.798;2023-02-07T00:10:31;31.23;;;14.63;;
24383;SDS011;12504;52.870;8.798;2023-02-07T00:12:57;39.60;;;15.25;;
24383;SDS011;12504;52.870;8.798;2023-02-07T00:15:24;34.47;;;15.57;;
24383;SDS011;12504;52.870;8.798;2023-02-07T00:17:50;32.42;;;15.10;;
24383;SDS011;12504;52.870;8.798;2023-02-07T00:20:16;33.50;;;16.48;;
24383;SDS011;12504;52.870;8.798;2023-02-07T00:22:43;29.60;;;14.38;;
24383;SDS011;12504;52.870;8.798;2023-02-07T00:25:09;42.00;;;16.73;;
24383;SDS011;12504;52.870;8.798;2023-02-07T00:27:36;33.55;;;16.77;;
24383;SDS011;12504;52.870;8.798;2023-02-07T00:30:02;30.30;;;14.77;;
24383;SDS011;12504;52.870;8.798;2023-02-07T00:32:30;32.22;;;16.60;;
24383;SDS011;12504;52.870;8.798;2023-02-07T00:34:57;32.83;;;15.32;;
24383;SDS011;12504;52.870;8.798;2023-02-07T00:37:22;37.30;;;16.45;;
24383;SDS011;12504;52.870;8.798;2023-02-07T00:39:48;34.53;;;15.05;;
24383;SDS011;12504;52.870;8.798;2023-02-07T00:42:14;29.75;;;15.50;;
24383;SDS011;12504;52.870;8.798;2023-02-07T00:44:40;28.77;;;13.68;;
24383;SDS011;12504;52.870;8.798;2023-02-07T00:47:05;32.72;;;16.60;;
24383;SDS011;12504;52.870;8.798;2023-02-07T00:49:31;27.02;;;15.10;;
24383;SDS011;12504;52.870;8.798;2023-02-07T00:51:57;28.48;;;15.13;;
24383;SDS011;12504;52.870;8.798;2023-02-07T00:54:22;32.60;;;15.57;;
24383;SDS011;12504;52.870;8.798;2023-02-07T00:56:49;31.80;;;15.23;;
24383;SDS011;12504;52.870;8.798;2023-02-07T00:59:15;31.52;;;14.80;;
24383;SDS011;12504;52.870;8.798;2023-02-07T01:01:41;34.15;;;15.63;;
24383;SDS011;12504;52.870;8.798;2023-02-07T01:04:06;33.30;;;14.80;;
24383;SDS011;12504;52.870;8.798;2023-02-07T01:06:32;29.25;;;15.95;;
24383;SDS011;12504;52.870;8.798;2023-02-07T01:09:01;34.30;;;14.60;;
24383;SDS011;12504;52.870;8.798;2023-02-07T01:11:28;38.50;;;16.92;;
24383;SDS011;12504;52.870;8.798;2023-02-07T01:13:55;34.92;;;15.43;;
24383;SDS011;12504;52.870;8.798;2023-02-07T01:16:24;33.17;;;16.70;;
24383;SDS011;12504;52.870;8.798;2023-02-07T01:18:52;35.95;;;16.52;;
24383;SDS011;12504;52.870;8.798;2023-02-07T01:21:19;29.45;;;13.93;;
24383;SDS011;12504;52.870;8.798;2023-02-07T01:23:47;29.50;;;14.00;;
24383;SDS011;12504;52.870;8.798;2023-02-07T01:26:14;32.15;;;15.88;;
24383;SDS011;12504;52.870;8.798;2023-02-07T01:28:40;31.67;;;15.23;;
24383;SDS011;12504;52.870;8.798;2023-02-07T01:31:07;28.73;;;14.77;;
24383;SDS011;12504;52.870;8.798;2023-02-07T01:33:34;37.20;;;14.45;;
24383;SDS011;12504;52.870;8.798;2023-02-07T01:36:05;29.45;;;15.55;;
24383;SDS011;12504;52.870;8.798;2023-02-07T01:38:32;32.95;;;14.80;;
24383;SDS011;12504;52.870;8.798;2023-02-07T01:40:57;32.80;;;17.33;;
24383;SDS011;12504;52.870;8.798;2023-02-07T01:43:23;29.70;;;13.68;;
24383;SDS011;12504;52.870;8.798;2023-02-07T01:45:50;32.55;;;14.70;;
24383;SDS011;12504;52.870;8.798;2023-02-07T01:48:22;31.35;;;14.88;;
24383;SDS011;12504;52.870;8.798;2023-02-07T01:50:52;34.55;;;14.48;;
24383;SDS011;12504;52.870;8.798;2023-02-07T01:53:21;30.17;;;14.63;;
24383;SDS011;12504;52.870;8.798;2023-02-07T01:55:50;35.45;;;16.38;;
24383;SDS011;12504;52.870;8.798;2023-02-07T01:58:19;35.90;;;14.25;;
24383;SDS011;12504;52.870;8.798;2023-02-07T02:00:46;34.75;;;14.73;;
24383;SDS011;12504;52.870;8.798;2023-02-07T02:03:12;28.67;;;15.10;;
24383;SDS011;12504;52.870;8.798;2023-02-07T02:05:38;37.47;;;15.38;;
24383;SDS011;12504;52.870;8.798;2023-02-07T02:08:06;37.22;;;16.15;;
24383;SDS011;12504;52.870;8.798;2023-02-07T02:13:07;39.50;;;17.42;;
24383;SDS011;12504;52.870;8.798;2023-02-07T02:18:07;27.65;;;14.20;;
24383;SDS011;12504;52.870;8.798;2023-02-07T02:20:54;35.80;;;15.88;;
24383;SDS011;12504;52.870;8.798;2023-02-07T02:23:32;32.90;;;16.60;;
24383;SDS011;12504;52.870;8.798;2023-02-07T02:34:23;28.77;;;14.57;;
24383;SDS011;12504;52.870;8.798;2023-02-07T02:39:27;33.90;;;17.20;;
24383;SDS011;12504;52.870;8.798;2023-02-07T02:42:03;37.40;;;16.85;;
24383;SDS011;12504;52.870;8.798;2023-02-07T02:44:41;28.95;;;15.98;;
24383;SDS011;12504;52.870;8.798;2023-02-07T02:47:08;33.10;;;15.38;;
24383;SDS011;12504;52.870;8.798;2023-02-07T02:49:35;35.67;;;16.13;;
24383;SDS011;12504;52.870;8.798;2023-02-07T02:52:03;37.10;;;16.92;;
24383;SDS011;12504;52.870;8.798;2023-02-07T02:54:33;36.95;;;17.63;;
24383;SDS011;12504;52.870;8.798;2023-02-07T03:02:17;40.92;;;18.38;;
24383;SDS011;12504;52.870;8.798;2023-02-07T03:07:36;30.67;;;14.88;;
24383;SDS011;12504;52.870;8.798;2023-02-07T03:20:28;39.33;;;18.38;;
24383;SDS011;12504;52.870;8.798;2023-02-07T03:22:57;43.72;;;18.38;;
24383;SDS011;12504;52.870;8.798;2023-02-07T03:25:24;36.33;;;18.02;;
24383;SDS011;12504;52.870;8.798;2023-02-07T03:27:52;33.10;;;19.10;;
24383;SDS011;12504;52.870;8.798;2023-02-07T03:30:19;35.58;;;16.95;;
24383;SDS011;12504;52.870;8.798;2023-02-07T03:32:47;45.08;;;17.50;;
24383;SDS011;12504;52.870;8.798;2023-02-07T03:37:41;48.28;;;21.23;;
24383;SDS011;12504;52.870;8.798;2023-02-07T03:40:09;37.75;;;18.30;;
24383;SDS011;12504;52.870;8.798;2023-02-07T03:42:37;44.83;;;20.73;;
24383;SDS011;12504;52.870;8.798;2023-02-07T03:45:04;35.45;;;18.88;;
24383;SDS011;12504;52.870;8.798;2023-02-07T03:47:31;39.88;;;20.95;;
24383;SDS011;12504;52.870;8.798;2023-02-07T03:49:57;44.10;;;20.50;;
24383;SDS011;12504;52.870;8.798;2023-02-07T03:52:23;42.22;;;20.52;;
24383;SDS011;12504;52.870;8.798;2023-02-07T03:54:50;46.85;;;20.45;;
24383;SDS011;12504;52.870;8.798;2023-02-07T03:57:16;50.63;;;21.08;;
24383;SDS011;12504;52.870;8.798;2023-02-07T03:59:42;51.55;;;23.92;;
24383;SDS011;12504;52.870;8.798;2023-02-07T04:02:08;50.55;;;22.23;;
24383;SDS011;12504;52.870;8.798;2023-02-07T04:04:34;46.50;;;20.30;;
24383;SDS011;12504;52.870;8.798;2023-02-07T04:07:00;56.40;;;21.77;;
24383;SDS011;12504;52.870;8.798;2023-02-07T04:09:26;43.47;;;20.25;;
24383;SDS011;12504;52.870;8.798;2023-02-07T04:11:52;40.85;;;20.13;;
24383;SDS011;12504;52.870;8.798;2023-02-07T04:14:18;39.85;;;19.48;;
24383;SDS011;12504;52.870;8.798;2023-02-07T04:16:45;47.47;;;19.35;;
24383;SDS011;12504;52.870;8.798;2023-02-07T04:19:12;38.10;;;20.38;;
24383;SDS011;12504;52.870;8.798;2023-02-07T04:21:38;43.70;;;20.48;;
24383;SDS011;12504;52.870;8.798;2023-02-07T04:24:04;44.78;;;21.13;;
24383;SDS011;12504;52.870;8.798;2023-02-07T04:26:30;42.20;;;18.25;;
24383;SDS011;12504;52.870;8.798;2023-02-07T04:28:56;40.03;;;19.27;;
24383;SDS011;12504;52.870;8.798;2023-02-07T04:31:22;40.47;;;19.25;;
24383;SDS011;12504;52.870;8.798;2023-02-07T04:33:48;42.58;;;19.42;;
24383;SDS011;12504;52.870;8.798;2023-02-07T04:36:14;36.13;;;19.48;;
24383;SDS011;12504;52.870;8.798;2023-02-07T04:38:40;43.50;;;20.35;;
24383;SDS011;12504;52.870;8.798;2023-02-07T04:41:05;38.45;;;20.10;;
24383;SDS011;12504;52.870;8.798;2023-02-07T04:43:32;42.88;;;20.27;;
24383;SDS011;12504;52.870;8.798;2023-02-07T04:45:59;46.47;;;19.27;;
24383;SDS011;12504;52.870;8.798;2023-02-07T04:48:26;48.97;;;19.67;;
24383;SDS011;12504;52.870;8.798;2023-02-07T04:50:52;51.88;;;19.42;;
24383;SDS011;12504;52.870;8.798;2023-02-07T04:53:18;46.97;;;21.85;;
24383;SDS011;12504;52.870;8.798;2023-02-07T04:55:48;42.05;;;20.05;;
24383;SDS011;12504;52.870;8.798;2023-02-07T04:58:14;47.38;;;19.80;;
24383;SDS011;12504;52.870;8.798;2023-02-07T05:00:40;47.92;;;21.45;;
24383;SDS011;12504;52.870;8.798;2023-02-07T05:03:06;44.83;;;20.60;;
24383;SDS011;12504;52.870;8.798;2023-02-07T05:05:31;39.78;;;20.17;;
24383;SDS011;12504;52.870;8.798;2023-02-07T05:07:57;42.30;;;20.90;;
24383;SDS011;12504;52.870;8.798;2023-02-07T05:10:23;54.50;;;23.20;;
24383;SDS011;12504;52.870;8.798;2023-02-07T05:12:48;43.90;;;20.35;;
24383;SDS011;12504;52.870;8.798;2023-02-07T05:15:14;52.65;;;22.08;;
24383;SDS011;12504;52.870;8.798;2023-02-07T05:17:40;44.90;;;21.52;;
24383;SDS011;12504;52.870;8.798;2023-02-07T05:20:06;44.97;;;20.70;;
24383;SDS011;12504;52.870;8.798;2023-02-07T05:22:32;46.10;;;20.85;;
24383;SDS011;12504;52.870;8.798;2023-02-07T05:24:58;50.47;;;21.13;;
24383;SDS011;12504;52.870;8.798;2023-02-07T05:27:23;48.53;;;22.15;;
24383;SDS011;12504;52.870;8.798;2023-02-07T05:29:49;45.60;;;21.08;;
24383;SDS011;12504;52.870;8.798;2023-02-07T05:32:15;50.40;;;23.50;;
24383;SDS011;12504;52.870;8.798;2023-02-07T05:34:59;53.20;;;23.38;;
24383;SDS011;12504;52.870;8.798;2023-02-07T05:37:25;47.28;;;20.58;;
24383;SDS011;12504;52.870;8.798;2023-02-07T05:39:51;51.53;;;21.50;;
24383;SDS011;12504;52.870;8.798;2023-02-07T05:42:16;49.30;;;22.50;;
24383;SDS011;12504;52.870;8.798;2023-02-07T05:44:43;57.40;;;22.52;;
24383;SDS011;12504;52.870;8.798;2023-02-07T05:47:09;48.85;;;22.90;;
24383;SDS011;12504;52.870;8.798;2023-02-07T05:49:34;51.78;;;21.17;;
24383;SDS011;12504;52.870;8.798;2023-02-07T05:52:00;53.03;;;21.13;;
24383;SDS011;12504;52.870;8.798;2023-02-07T05:54:26;52.60;;;21.08;;
24383;SDS011;12504;52.870;8.798;2023-02-07T05:56:51;44.58;;;21.70;;
24383;SDS011;12504;52.870;8.798;2023-02-07T05:59:17;51.50;;;21.55;;
24383;SDS011;12504;52.870;8.798;2023-02-07T06:01:43;56.55;;;22.73;;
24383;SDS011;12504;52.870;8.798;2023-02-07T06:04:08;53.25;;;18.90;;
24383;SDS011;12504;52.870;8.798;2023-02-07T06:06:34;43.13;;;18.70;;
24383;SDS011;12504;52.870;8.798;2023-02-07T06:08:59;50.10;;;22.85;;
24383;SDS011;12504;52.870;8.798;2023-02-07T06:11:25;51.60;;;24.58;;
24383;SDS011;12504;52.870;8.798;2023-02-07T06:13:51;63.78;;;27.42;;
24383;SDS011;12504;52.870;8.798;2023-02-07T06:16:17;59.92;;;25.48;;
24383;SDS011;12504;52.870;8.798;2023-02-07T06:18:43;55.67;;;22.53;;
24383;SDS011;12504;52.870;8.798;2023-02-07T06:21:08;51.43;;;22.00;;
24383;SDS011;12504;52.870;8.798;2023-02-07T06:23:34;52.58;;;25.98;;
24383;SDS011;12504;52.870;8.798;2023-02-07T06:26:00;59.50;;;26.40;;
24383;SDS011;12504;52.870;8.798;2023-02-07T06:28:25;49.53;;;22.08;;
24383;SDS011;12504;52.870;8.798;2023-02-07T06:30:51;46.10;;;21.23;;
24383;SDS011;12504;52.870;8.798;2023-02-07T06:33:17;50.00;;;22.73;;
24383;SDS011;12504;52.870;8.798;2023-02-07T06:35:43;54.73;;;23.33;;
24383;SDS011;12504;52.870;8.798;2023-02-07T06:38:14;49.50;;;22.73;;
24383;SDS011;12504;52.870;8.798;2023-02-07T06:40:41;47.38;;;22.63;;
24383;SDS011;12504;52.870;8.798;2023-02-07T06:43:07;48.50;;;22.03;;
24383;SDS011;12504;52.870;8.798;2023-02-07T06:45:34;53.23;;;22.03;;
24383;SDS011;12504;52.870;8.798;2023-02-07T06:47:59;47.10;;;20.73;;
24383;SDS011;12504;52.870;8.798;2023-02-07T06:50:25;50.30;;;22.60;;
24383;SDS011;12504;52.870;8.798;2023-02-07T06:52:51;40.00;;;19.77;;
24383;SDS011;12504;52.870;8.798;2023-02-07T06:55:17;55.87;;;21.33;;
24383;SDS011;12504;52.870;8.798;2023-02-07T06:57:43;48.63;;;20.87;;
24383;SDS011;12504;52.870;8.798;2023-02-07T07:00:09;51.87;;;20.60;;
24383;SDS011;12504;52.870;8.798;2023-02-07T07:02:35;52.00;;;22.30;;
24383;SDS011;12504;52.870;8.798;2023-02-07T07:05:02;54.20;;;21.77;;
24383;SDS011;12504;52.870;8.798;2023-02-07T07:07:28;45.90;;;21.07;;
24383;SDS011;12504;52.870;8.798;2023-02-07T07:09:54;47.23;;;22.00;;
24383;SDS011;12504;52.870;8.798;2023-02-07T07:12:19;61.90;;;20.60;;
24383;SDS011;12504;52.870;8.798;2023-02-07T07:14:45;44.83;;;20.17;;
24383;SDS011;12504;52.870;8.798;2023-02-07T07:17:10;44.57;;;21.57;;
24383;SDS011;12504;52.870;8.798;2023-02-07T07:19:36;50.75;;;20.92;;
24383;SDS011;12504;52.870;8.798;2023-02-07T07:22:02;51.70;;;22.83;;
24383;SDS011;12504;52.870;8.798;2023-02-07T07:24:27;46.58;;;21.17;;
24383;SDS011;12504;52.870;8.798;2023-02-07T07:26:53;39.30;;;19.53;;
24383;SDS011;12504;52.870;8.798;2023-02-07T07:29:20;47.87;;;20.83;;
24383;SDS011;12504;52.870;8.798;2023-02-07T07:31:46;43.72;;;20.77;;
24383;SDS011;12504;52.870;8.798;2023-02-07T07:34:12;48.60;;;20.42;;
24383;SDS011;12504;52.870;8.798;2023-02-07T07:36:38;44.38;;;20.25;;
24383;SDS011;12504;52.870;8.798;2023-02-07T07:39:04;44.17;;;20.30;;
24383;SDS011;12504;52.870;8.798;2023-02-07T07:41:31;57.78;;;21.05;;
24383;SDS011;12504;52.870;8.798;2023-02-07T07:43:56;50.88;;;22.38;;
24383;SDS011;12504;52.870;8.798;2023-02-07T07:46:22;47.25;;;21.63;;
24383;SDS011;12504;52.870;8.798;2023-02-07T07:48:48;52.40;;;22.35;;
24383;SDS011;12504;52.870;8.798;2023-02-07T07:51:13;53.90;;;22.38;;
24383;SDS011;12504;52.870;8.798;2023-02-07T07:53:39;52.30;;;22.50;;
24383;SDS011;12504;52.870;8.798;2023-02-07T07:56:05;51.65;;;21.92;;
24383;SDS011;12504;52.870;8.798;2023-02-07T07:58:30;51.72;;;23.08;;
24383;SDS011;12504;52.870;8.798;2023-02-07T08:00:56;43.75;;;20.17;;
24383;SDS011;12504;52.870;8.798;2023-02-07T08:03:22;53.50;;;22.33;;
24383;SDS011;12504;52.870;8.798;2023-02-07T08:05:48;50.15;;;21.75;;
24383;SDS011;12504;52.870;8.798;2023-02-07T08:08:14;56.65;;;24.38;;
24383;SDS011;12504;52.870;8.798;2023-02-07T08:10:40;49.28;;;22.98;;
24383;SDS011;12504;52.870;8.798;2023-02-07T08:13:06;49.50;;;22.27;;
24383;SDS011;12504;52.870;8.798;2023-02-07T08:15:33;54.25;;;23.45;;
24383;SDS011;12504;52.870;8.798;2023-02-07T08:17:59;50.28;;;23.35;;
24383;SDS011;12504;52.870;8.798;2023-02-07T08:20:25;62.35;;;25.25;;
24383;SDS011;12504;52.870;8.798;2023-02-07T08:22:50;53.55;;;25.73;;
24383;SDS011;12504;52.870;8.798;2023-02-07T08:25:17;56.65;;;26.13;;
24383;SDS011;12504;52.870;8.798;2023-02-07T08:27:43;60.00;;;24.48;;
24383;SDS011;12504;52.870;8.798;2023-02-07T08:30:10;61.35;;;24.80;;
24383;SDS011;12504;52.870;8.798;2023-02-07T08:32:37;50.38;;;24.77;;
24383;SDS011;12504;52.870;8.798;2023-02-07T08:35:03;52.28;;;25.58;;
24383;SDS011;12504;52.870;8.798;2023-02-07T08:37:30;58.28;;;24.88;;
24383;SDS011;12504;52.870;8.798;2023-02-07T08:39:55;57.53;;;25.75;;
24383;SDS011;12504;52.870;8.798;2023-02-07T08:42:22;56.30;;;25.73;;
24383;SDS011;12504;52.870;8.798;2023-02-07T08:44:48;54.13;;;23.77;;
24383;SDS011;12504;52.870;8.798;2023-02-07T08:47:15;56.75;;;25.58;;
24383;SDS011;12504;52.870;8.798;2023-02-07T08:49:41;48.42;;;22.90;;
24383;SDS011;12504;52.870;8.798;2023-02-07T08:52:08;51.00;;;26.27;;
24383;SDS011;12504;52.870;8.798;2023-02-07T08:54:34;56.83;;;25.48;;
24383;SDS011;12504;52.870;8.798;2023-02-07T08:56:59;51.22;;;24.55;;
24383;SDS011;12504;52.870;8.798;2023-02-07T08:59:25;52.13;;;23.65;;
24383;SDS011;12504;52.870;8.798;2023-02-07T09:01:51;51.58;;;25.70;;
24383;SDS011;12504;52.870;8.798;2023-02-07T09:04:16;55.17;;;25.17;;
24383;SDS011;12504;52.870;8.798;2023-02-07T09:06:42;61.63;;;25.30;;
24383;SDS011;12504;52.870;8.798;2023-02-07T09:09:08;55.00;;;23.05;;
24383;SDS011;12504;52.870;8.798;2023-02-07T09:11:34;50.63;;;24.13;;
24383;SDS011;12504;52.870;8.798;2023-02-07T09:14:00;48.95;;;22.30;;
24383;SDS011;12504;52.870;8.798;2023-02-07T09:16:26;52.55;;;22.88;;
24383;SDS011;12504;52.870;8.798;2023-02-07T09:18:52;54.47;;;25.67;;
24383;SDS011;12504;52.870;8.798;2023-02-07T09:21:17;53.85;;;22.23;;
24383;SDS011;12504;52.870;8.798;2023-02-07T09:23:43;43.60;;;21.95;;
24383;SDS011;12504;52.870;8.798;2023-02-07T09:26:10;50.60;;;22.23;;
24383;SDS011;12504;52.870;8.798;2023-02-07T09:28:43;48.90;;;21.85;;
24383;SDS011;12504;52.870;8.798;2023-02-07T09:31:09;48.47;;;20.75;;
24383;SDS011;12504;52.870;8.798;2023-02-07T09:33:36;41.25;;;23.13;;
24383;SDS011;12504;52.870;8.798;2023-02-07T09:36:02;59.10;;;23.17;;
24383;SDS011;12504;52.870;8.798;2023-02-07T09:38:29;48.08;;;20.83;;
24383;SDS011;12504;52.870;8.798;2023-02-07T09:40:55;44.42;;;21.52;;
24383;SDS011;12504;52.870;8.798;2023-02-07T09:43:31;51.92;;;20.20;;
24383;SDS011;12504;52.870;8.798;2023-02-07T09:46:09;41.47;;;19.02;;
24383;SDS011;12504;52.870;8.798;2023-02-07T09:49:01;50.65;;;22.55;;
24383;SDS011;12504;52.870;8.798;2023-02-07T09:51:33;45.95;;;20.95;;
24383;SDS011;12504;52.870;8.798;2023-02-07T09:54:02;45.40;;;21.35;;
24383;SDS011;12504;52.870;8.798;2023-02-07T09:56:31;48.15;;;19.42;;
24383;SDS011;12504;52.870;8.798;2023-02-07T09:59:01;46.35;;;21.23;;
24383;SDS011;12504;52.870;8.798;2023-02-07T10:01:42;47.88;;;21.48;;
24383;SDS011;12504;52.870;8.798;2023-02-07T10:06:46;44.17;;;20.10;;
24383;SDS011;12504;52.870;8.798;2023-02-07T10:09:23;42.97;;;19.70;;
24383;SDS011;12504;52.870;8.798;2023-02-07T10:11:53;35.70;;;18.98;;
24383;SDS011;12504;52.870;8.798;2023-02-07T10:14:26;45.92;;;21.48;;
24383;SDS011;12504;52.870;8.798;2023-02-07T10:28:06;40.53;;;18.35;;
24383;SDS011;12504;52.870;8.798;2023-02-07T10:30:46;42.78;;;18.65;;
24383;SDS011;12504;52.870;8.798;2023-02-07T10:33:18;37.13;;;17.92;;
24383;SDS011;12504;52.870;8.798;2023-02-07T10:35:47;49.20;;;22.73;;
24383;SDS011;12504;52.870;8.798;2023-02-07T10:38:21;41.17;;;19.75;;
24383;SDS011;12504;52.870;8.798;2023-02-07T10:41:02;32.08;;;16.10;;
24383;SDS011;12504;52.870;8.798;2023-02-07T10:43:36;40.85;;;19.92;;
24383;SDS011;12504;52.870;8.798;2023-02-07T10:46:04;41.85;;;20.45;;
24383;SDS011;12504;52.870;8.798;2023-02-07T10:48:33;41.22;;;19.33;;
24383;SDS011;12504;52.870;8.798;2023-02-07T10:50:59;35.63;;;18.15;;
24383;SDS011;12504;52.870;8.798;2023-02-07T10:53:44;38.55;;;17.80;;
24383;SDS011;12504;52.870;8.798;2023-02-07T10:56:19;41.28;;;19.77;;
24383;SDS011;12504;52.870;8.798;2023-02-07T10:58:47;37.63;;;17.83;;
24383;SDS011;12504;52.870;8.798;2023-02-07T11:01:18;42.17;;;19.67;;
24383;SDS011;12504;52.870;8.798;2023-02-07T11:03:46;36.67;;;18.20;;
24383;SDS011;12504;52.870;8.798;2023-02-07T11:06:15;38.03;;;18.08;;
24383;SDS011;12504;52.870;8.798;2023-02-07T11:09:10;36.58;;;18.70;;
24383;SDS011;12504;52.870;8.798;2023-02-07T11:11:50;33.67;;;17.58;;
24383;SDS011;12504;52.870;8.798;2023-02-07T11:14:19;36.03;;;17.98;;
24383;SDS011;12504;52.870;8.798;2023-02-07T11:16:57;36.65;;;18.42;;
24383;SDS011;12504;52.870;8.798;2023-02-07T11:19:25;31.77;;;16.13;;
24383;SDS011;12504;52.870;8.798;2023-02-07T11:22:04;28.33;;;14.77;;
24383;SDS011;12504;52.870;8.798;2023-02-07T11:24:43;29.77;;;14.90;;
24383;SDS011;12504;52.870;8.798;2023-02-07T11:27:15;32.83;;;15.55;;
24383;SDS011;12504;52.870;8.798;2023-02-07T11:29:52;30.08;;;15.52;;
24383;SDS011;12504;52.870;8.798;2023-02-07T11:32:21;34.60;;;16.60;;
24383;SDS011;12504;52.870;8.798;2023-02-07T11:34:53;32.63;;;14.48;;
24383;SDS011;12504;52.870;8.798;2023-02-07T11:39:53;31.55;;;15.80;;
24383;SDS011;12504;52.870;8.798;2023-02-07T11:42:23;32.72;;;15.05;;
24383;SDS011;12504;52.870;8.798;2023-02-07T11:44:54;36.53;;;18.25;;
24383;SDS011;12504;52.870;8.798;2023-02-07T11:47:22;26.85;;;13.40;;
24383;SDS011;12504;52.870;8.798;2023-02-07T11:49:59;27.27;;;13.18;;
24383;SDS011;12504;52.870;8.798;2023-02-07T11:52:27;20.63;;;11.65;;
24383;SDS011;12504;52.870;8.798;2023-02-07T11:54:56;19.42;;;10.25;;
24383;SDS011;12504;52.870;8.798;2023-02-07T11:57:24;17.33;;;9.55;;
24383;SDS011;12504;52.870;8.798;2023-02-07T12:05:17;13.80;;;8.07;;
24383;SDS011;12504;52.870;8.798;2023-02-07T12:07:46;14.10;;;8.10;;
24383;SDS011;12504;52.870;8.798;2023-02-07T12:10:14;12.70;;;7.95;;
24383;SDS011;12504;52.870;8.798;2023-02-07T12:12:47;15.38;;;8.93;;
24383;SDS011;12504;52.870;8.798;2023-02-07T12:20:55;10.98;;;7.30;;
24383;SDS011;12504;52.870;8.798;2023-02-07T12:26:21;15.07;;;8.50;;
24383;SDS011;12504;52.870;8.798;2023-02-07T12:31:38;14.30;;;9.23;;
24383;SDS011;12504;52.870;8.798;2023-02-07T12:34:11;12.02;;;9.02;;
24383;SDS011;12504;52.870;8.798;2023-02-07T12:36:58;10.65;;;8.18;;
24383;SDS011;12504;52.870;8.798;2023-02-07T12:39:27;11.85;;;6.78;;
24383;SDS011;12504;52.870;8.798;2023-02-07T12:42:08;12.38;;;8.60;;
24383;SDS011;12504;52.870;8.798;2023-02-07T12:44:48;14.77;;;9.48;;
24383;SDS011;12504;52.870;8.798;2023-02-07T12:50:12;12.90;;;8.35;;
24383;SDS011;12504;52.870;8.798;2023-02-07T12:52:49;13.32;;;8.85;;
24383;SDS011;12504;52.870;8.798;2023-02-07T13:03:41;17.25;;;10.00;;
24383;SDS011;12504;52.870;8.798;2023-02-07T13:06:16;14.75;;;8.57;;
24383;SDS011;12504;52.870;8.798;2023-02-07T13:11:45;19.45;;;10.18;;
24383;SDS011;12504;52.870;8.798;2023-02-07T13:23:03;15.63;;;9.52;;
24383;SDS011;12504;52.870;8.798;2023-02-07T13:25:39;18.23;;;10.13;;
24383;SDS011;12504;52.870;8.798;2023-02-07T13:28:07;17.13;;;10.35;;
24383;SDS011;12504;52.870;8.798;2023-02-07T13:30:42;20.88;;;10.65;;
24383;SDS011;12504;52.870;8.798;2023-02-07T13:36:01;16.90;;;9.93;;
24383;SDS011;12504;52.870;8.798;2023-02-07T13:39:06;19.13;;;10.50;;
24383;SDS011;12504;52.870;8.798;2023-02-07T13:42:04;16.35;;;10.02;;
24383;SDS011;12504;52.870;8.798;2023-02-07T13:44:56;14.18;;;9.35;;
24383;SDS011;12504;52.870;8.798;2023-02-07T13:55:39;18.58;;;10.65;;
24383;SDS011;12504;52.870;8.798;2023-02-07T14:01:16;14.88;;;9.45;;
24383;SDS011;12504;52.870;8.798;2023-02-07T14:03:58;14.20;;;9.02;;
24383;SDS011;12504;52.870;8.798;2023-02-07T14:06:30;15.18;;;8.52;;
24383;SDS011;12504;52.870;8.798;2023-02-07T14:11:34;15.93;;;9.47;;
24383;SDS011;12504;52.870;8.798;2023-02-07T14:14:02;13.10;;;7.65;;
24383;SDS011;12504;52.870;8.798;2023-02-07T14:16:42;14.95;;;9.27;;
24383;SDS011;12504;52.870;8.798;2023-02-07T14:19:13;15.48;;;9.35;;
24383;SDS011;12504;52.870;8.798;2023-02-07T14:21:42;12.70;;;7.43;;
24383;SDS011;12504;52.870;8.798;2023-02-07T14:31:52;14.25;;;8.07;;
24383;SDS011;12504;52.870;8.798;2023-02-07T14:34:19;14.40;;;8.88;;
24383;SDS011;12504;52.870;8.798;2023-02-07T14:36:46;15.95;;;8.93;;
24383;SDS011;12504;52.870;8.798;2023-02-07T14:41:41;17.75;;;9.88;;
24383;SDS011;12504;52.870;8.798;2023-02-07T14:44:19;15.73;;;8.65;;
24383;SDS011;12504;52.870;8.798;2023-02-07T14:46:50;16.73;;;9.77;;
24383;SDS011;12504;52.870;8.798;2023-02-07T14:51:58;18.70;;;9.48;;
24383;SDS011;12504;52.870;8.798;2023-02-07T14:57:07;16.45;;;9.75;;
24383;SDS011;12504;52.870;8.798;2023-02-07T15:04:57;16.23;;;9.90;;
24383;SDS011;12504;52.870;8.798;2023-02-07T15:12:57;18.27;;;10.52;;
24383;SDS011;12504;52.870;8.798;2023-02-07T15:15:58;15.85;;;9.88;;
24383;SDS011;12504;52.870;8.798;2023-02-07T15:18:30;15.77;;;10.80;;
24383;SDS011;12504;52.870;8.798;2023-02-07T15:20:58;19.63;;;10.98;;
24383;SDS011;12504;52.870;8.798;2023-02-07T15:23:25;23.10;;;12.75;;
24383;SDS011;12504;52.870;8.798;2023-02-07T15:25:52;19.98;;;10.75;;
24383;SDS011;12504;52.870;8.798;2023-02-07T15:33:39;18.00;;;9.80;;
24383;SDS011;12504;52.870;8.798;2023-02-07T15:38:55;16.27;;;9.73;;
24383;SDS011;12504;52.870;8.798;2023-02-07T15:41:22;28.42;;;15.60;;
24383;SDS011;12504;52.870;8.798;2023-02-07T15:43:58;40.30;;;22.42;;
24383;SDS011;12504;52.870;8.798;2023-02-07T15:46:26;44.40;;;23.48;;
24383;SDS011;12504;52.870;8.798;2023-02-07T15:49:07;25.95;;;16.52;;
24383;SDS011;12504;52.870;8.798;2023-02-07T15:51:35;30.08;;;16.08;;
24383;SDS011;12504;52.870;8.798;2023-02-07T15:54:05;29.35;;;17.17;;
24383;SDS011;12504;52.870;8.798;2023-02-07T15:56:31;24.23;;;13.80;;
24383;SDS011;12504;52.870;8.798;2023-02-07T15:58:58;24.08;;;14.18;;
24383;SDS011;12504;52.870;8.798;2023-02-07T16:01:27;22.05;;;13.90;;
24383;SDS011;12504;52.870;8.798;2023-02-07T16:03:55;20.13;;;11.27;;
24383;SDS011;12504;52.870;8.798;2023-02-07T16:06:22;21.90;;;11.80;;
24383;SDS011;12504;52.870;8.798;2023-02-07T16:08:53;21.17;;;12.82;;
24383;SDS011;12504;52.870;8.798;2023-02-07T16:16:39;24.48;;;12.75;;
24383;SDS011;12504;52.870;8.798;2023-02-07T16:19:15;26.42;;;11.90;;
24383;SDS011;12504;52.870;8.798;2023-02-07T16:21:43;22.15;;;13.55;;
24383;SDS011;12504;52.870;8.798;2023-02-07T16:24:14;31.70;;;14.00;;
24383;SDS011;12504;52.870;8.798;2023-02-07T16:26:45;28.02;;;14.27;;
24383;SDS011;12504;52.870;8.798;2023-02-07T16:29:16;30.08;;;15.98;;
24383;SDS011;12504;52.870;8.798;2023-02-07T16:31:44;29.15;;;14.55;;
24383;SDS011;12504;52.870;8.798;2023-02-07T16:34:10;30.25;;;14.75;;
24383;SDS011;12504;52.870;8.798;2023-02-07T16:36:37;29.00;;;13.43;;
24383;SDS011;12504;52.870;8.798;2023-02-07T16:39:03;21.23;;;12.15;;
24383;SDS011;12504;52.870;8.798;2023-02-07T16:41:29;24.05;;;11.90;;
24383;SDS011;12504;52.870;8.798;2023-02-07T16:44:04;21.77;;;11.57;;
24383;SDS011;12504;52.870;8.798;2023-02-07T16:46:31;23.42;;;11.10;;
24383;SDS011;12504;52.870;8.798;2023-02-07T16:48:57;23.33;;;11.18;;
24383;SDS011;12504;52.870;8.798;2023-02-07T16:51:22;23.08;;;11.88;;
24383;SDS011;12504;52.870;8.798;2023-02-07T16:53:48;24.35;;;11.10;;
24383;SDS011;12504;52.870;8.798;2023-02-07T16:56:20;27.00;;;10.82;;
24383;SDS011;12504;52.870;8.798;2023-02-07T16:58:51;26.73;;;12.85;;
24383;SDS011;12504;52.870;8.798;2023-02-07T17:01:18;23.73;;;11.80;;